createdAt,value
2023-02-15T00:04:49.804Z,7.52
2023-02-15T00:09:53.213Z,7.52
2023-02-15T00:14:56.540Z,7.52
2023-02-15T00:19:59.869Z,7.50
2023-02-15T00:25:03.228Z,7.48
2023-02-15T00:30:07.478Z,7.46
2023-02-15T00:35:10.991Z,7.47
2023-02-15T00:40:15.146Z,7.46
2023-02-15T00:45:19.486Z,7.42
2023-02-15T00:50:23.947Z,7.37
2023-02-15T00:55:27.966Z,7.34
2023-02-15T01:00:33.709Z,7.36
2023-02-15T01:05:37.424Z,7.35
2023-02-15T01:10:40.942Z,7.36
2023-02-15T01:15:46.819Z,7.35
2023-02-15T01:20:51.270Z,7.33
2023-02-15T01:25:54.677Z,7.31
2023-02-15T01:30:58.274Z,7.29
2023-02-15T01:36:02.244Z,7.28
2023-02-15T01:41:21.445Z,7.27
2023-02-15T01:46:45.590Z,7.26
2023-02-15T01:51:52.457Z,7.25
2023-02-15T01:57:04.022Z,7.25
2023-02-15T02:02:11.069Z,7.25
2023-02-15T02:07:17.498Z,7.26
2023-02-15T02:12:23.038Z,7.26
2023-02-15T02:17:40.887Z,7.25
2023-02-15T02:23:22.169Z,7.25
2023-02-15T02:28:59.322Z,7.23
2023-02-15T02:34:10.933Z,7.22
2023-02-15T02:39:14.980Z,7.19
2023-02-15T02:44:24.267Z,7.18
2023-02-15T02:49:37.977Z,7.14
2023-02-15T02:54:41.379Z,7.14
2023-02-15T02:59:48.014Z,7.14
2023-02-15T03:04:59.600Z,7.11
2023-02-15T03:10:06.199Z,7.09
2023-02-15T03:15:20.532Z,7.07
2023-02-15T03:20:29.092Z,7.07
2023-02-15T03:25:41.036Z,7.06
2023-02-15T03:30:49.159Z,7.03
2023-02-15T03:36:01.044Z,7.02
2023-02-15T03:41:12.046Z,7.04
2023-02-15T03:46:29.285Z,7.04
2023-02-15T03:51:39.234Z,7.02
2023-02-15T03:57:03.664Z,7.02
2023-02-15T04:02:22.945Z,8.19
2023-02-15T04:07:26.224Z,11.62
2023-02-15T04:12:29.432Z,12.25
2023-02-15T04:17:32.795Z,10.77
2023-02-15T04:22:55.201Z,9.90
2023-02-15T04:27:58.614Z,9.23
2023-02-15T04:33:02.097Z,8.74
2023-02-15T04:38:05.551Z,8.36
2023-02-15T04:43:08.945Z,8.04
2023-02-15T04:48:12.580Z,7.78
2023-02-15T04:53:18.749Z,7.57
2023-02-15T04:58:22.235Z,7.32
2023-02-15T05:03:26.172Z,7.18
2023-02-15T05:08:29.565Z,7.07
2023-02-15T05:13:33.324Z,6.97
2023-02-15T05:18:36.886Z,6.93
2023-02-15T05:23:40.405Z,6.89
2023-02-15T05:28:44.538Z,6.86
2023-02-15T05:33:48.120Z,6.84
2023-02-15T05:38:51.837Z,6.75
2023-02-15T05:43:57.914Z,7.61
2023-02-15T05:49:01.888Z,10.95
2023-02-15T05:54:05.217Z,11.55
2023-02-15T05:59:09.102Z,10.12
2023-02-15T06:04:13.860Z,9.29
2023-02-15T06:09:19.491Z,8.79
2023-02-15T06:14:23.451Z,8.36
2023-02-15T06:19:26.898Z,7.96
2023-02-15T06:24:30.389Z,7.66
2023-02-15T06:29:33.693Z,7.42
2023-02-15T06:34:37.053Z,7.23
2023-02-15T06:39:40.594Z,7.10
2023-02-15T06:44:43.940Z,7.00
2023-02-15T06:49:47.401Z,6.92
2023-02-15T06:54:51.631Z,6.85
2023-02-15T06:59:55.342Z,6.79
2023-02-15T07:04:59.190Z,6.75
2023-02-15T07:10:03.289Z,6.72
2023-02-15T07:15:07.798Z,6.70
2023-02-15T07:20:14.855Z,6.71
2023-02-15T07:25:18.668Z,6.68
2023-02-15T07:30:22.095Z,6.69
2023-02-15T07:35:26.246Z,6.67
2023-02-15T07:40:29.972Z,6.63
2023-02-15T07:45:33.429Z,7.69
2023-02-15T07:50:36.750Z,11.05
2023-02-15T07:55:40.294Z,11.46
2023-02-15T08:00:59.063Z,10.07
2023-02-15T08:06:05.863Z,9.22
2023-02-15T08:11:34.877Z,8.75
2023-02-15T08:16:42.134Z,8.36
2023-02-15T08:21:51.600Z,8.09
2023-02-15T08:26:56.333Z,7.89
2023-02-15T08:32:04.636Z,7.72
2023-02-15T08:37:08.976Z,7.70
2023-02-15T08:42:14.687Z,7.66
2023-02-15T08:47:19.546Z,7.61
2023-02-15T08:52:24.387Z,7.59
2023-02-15T08:57:29.334Z,7.53
2023-02-15T09:02:33.784Z,7.49
2023-02-15T09:07:38.588Z,7.48
2023-02-15T09:12:42.979Z,7.55
2023-02-15T09:17:47.130Z,7.61
2023-02-15T09:22:58.128Z,7.66
2023-02-15T09:28:04.111Z,7.71
2023-02-15T09:33:07.530Z,7.79
2023-02-15T09:38:13.303Z,7.85
2023-02-15T09:43:35.702Z,7.98
2023-02-15T09:48:50.039Z,8.12
2023-02-15T09:54:12.374Z,8.13
2023-02-15T09:59:34.138Z,8.19
2023-02-15T10:05:05.659Z,8.29
2023-02-15T10:10:53.769Z,8.35
2023-02-15T10:16:07.126Z,8.52
2023-02-15T10:21:25.995Z,8.69
2023-02-15T10:26:42.378Z,8.87
2023-02-15T10:31:55.547Z,9.04
2023-02-15T10:37:27.348Z,9.21
2023-02-15T10:42:53.593Z,9.45
2023-02-15T10:48:15.530Z,9.74
2023-02-15T10:53:21.977Z,10.05
2023-02-15T10:58:56.981Z,10.31
2023-02-15T11:04:37.745Z,10.58
2023-02-15T11:09:49.588Z,10.81
2023-02-15T11:15:20.977Z,11.01
2023-02-15T11:20:34.348Z,11.16
2023-02-15T11:25:38.124Z,11.28
2023-02-15T11:30:47.203Z,11.35
2023-02-15T11:35:53.962Z,11.39
2023-02-15T11:41:04.012Z,11.41
2023-02-15T11:46:12.490Z,11.39
2023-02-15T11:51:19.029Z,11.49
2023-02-15T11:56:27.372Z,11.61
2023-02-15T12:01:41.405Z,11.79
2023-02-15T12:07:03.319Z,11.98
2023-02-15T12:12:28.240Z,12.15
2023-02-15T12:17:35.953Z,12.35
2023-02-15T12:22:40.389Z,12.63
2023-02-15T12:27:44.574Z,12.92
2023-02-15T12:33:06.464Z,13.09
2023-02-15T12:38:12.462Z,13.18
2023-02-15T12:43:35.660Z,13.24
2023-02-15T12:48:40.719Z,13.30
2023-02-15T12:53:45.299Z,13.35
2023-02-15T12:58:48.856Z,13.39
2023-02-15T13:04:15.313Z,13.44
2023-02-15T13:09:33.370Z,13.50
2023-02-15T13:14:37.469Z,13.58
2023-02-15T13:19:46.091Z,13.66
2023-02-15T13:25:00.490Z,13.77
2023-02-15T13:30:16.426Z,13.88
2023-02-15T13:35:20.334Z,13.98
2023-02-15T13:40:32.561Z,14.10
2023-02-15T13:46:31.188Z,14.16
2023-02-15T13:51:55.323Z,14.14
2023-02-15T13:57:20.473Z,14.02
2023-02-15T14:02:36.686Z,13.85
2023-02-15T14:07:42.602Z,13.61
2023-02-15T14:13:20.593Z,13.36
2023-02-15T14:18:36.908Z,13.09
2023-02-15T14:23:59.714Z,12.88
2023-02-15T14:29:21.796Z,12.99
2023-02-15T14:34:46.072Z,12.93
2023-02-15T14:40:22.813Z,12.72
2023-02-15T14:45:54.198Z,12.54
2023-02-15T14:50:57.665Z,12.82
2023-02-15T14:56:20.625Z,12.73
2023-02-15T15:01:28.220Z,12.51
2023-02-15T15:06:34.163Z,12.29
2023-02-15T15:11:46.599Z,12.08
2023-02-15T15:16:52.224Z,11.88
2023-02-15T15:21:57.735Z,11.70
2023-02-15T15:27:27.297Z,11.54
2023-02-15T15:32:35.065Z,11.41
2023-02-15T15:37:47.522Z,11.24
2023-02-15T15:42:51.626Z,11.08
2023-02-15T15:48:30.317Z,10.95
2023-02-15T15:53:43.464Z,10.81
2023-02-15T15:58:53.528Z,10.69
2023-02-15T16:03:59.570Z,10.56
2023-02-15T16:09:27.408Z,10.45
2023-02-15T16:14:36.518Z,10.33
2023-02-15T16:19:42.962Z,10.21
2023-02-15T16:25:01.978Z,10.12
2023-02-15T16:30:36.656Z,10.02
2023-02-15T16:43:43.598Z,9.74
2023-02-15T16:48:52.671Z,9.63
2023-02-15T16:54:02.293Z,9.53
2023-02-15T17:00:44.696Z,9.43
2023-02-15T17:05:55.012Z,9.33
2023-02-15T17:11:14.640Z,9.24
2023-02-15T18:07:45.036Z,8.12
2023-02-15T19:12:53.279Z,8.77
2023-02-15T19:17:56.733Z,8.38
2023-02-15T19:23:02.074Z,8.07
2023-02-15T19:28:37.943Z,7.80
2023-02-15T19:33:46.293Z,7.55
2023-02-15T20:52:59.263Z,5.90
2023-02-15T21:04:48.068Z,5.64
2023-02-15T21:10:02.775Z,6.96
2023-02-15T21:16:29.260Z,10.41
2023-02-15T21:22:22.072Z,10.23
2023-02-15T21:28:30.796Z,8.75
2023-02-15T21:34:22.138Z,7.91
2023-02-15T21:40:06.400Z,7.32
2023-02-15T21:45:56.465Z,6.82
2023-02-15T21:52:09.574Z,6.43
2023-02-15T21:58:10.111Z,6.17
2023-02-15T22:10:02.352Z,6.05
2023-02-15T22:16:17.778Z,6.04
2023-02-15T22:28:52.778Z,10.88
2023-02-15T22:35:25.663Z,10.91
2023-02-15T22:41:38.722Z,9.31
2023-02-15T22:46:56.770Z,8.48
2023-02-15T22:53:28.814Z,7.91
2023-02-15T22:59:14.738Z,7.37
2023-02-15T23:05:13.538Z,7.00
2023-02-15T23:10:46.770Z,6.69
2023-02-15T23:16:54.282Z,6.43
2023-02-15T23:23:13.061Z,6.22
2023-02-15T23:29:03.750Z,6.07
2023-02-15T23:35:11.741Z,5.95
2023-02-15T23:41:24.495Z,5.88
2023-02-15T23:47:17.871Z,7.61
2023-02-15T23:53:39.898Z,10.65
2023-02-15T23:59:23.350Z,10.74
